createdAt,value
2016-06-06T08:40:07.214Z,20.8
2016-06-06T08:40:17.214Z,20.8
2016-06-06T08:40:27.199Z,20.8
2016-06-06T08:40:37.199Z,20.8
2016-06-06T08:40:47.199Z,20.8
2016-06-06T08:40:57.199Z,20.9
2016-06-06T08:41:07.186Z,20.9
2016-06-06T08:41:17.202Z,20.8
2016-06-06T08:41:27.186Z,20.8
2016-06-06T08:41:37.170Z,20.8
2016-06-06T08:41:47.170Z,20.8
2016-06-06T08:41:57.170Z,20.8
2016-06-06T08:42:07.173Z,20.8
2016-06-06T08:42:17.158Z,20.9
2016-06-06T08:42:27.158Z,20.9
2016-06-06T08:42:37.142Z,20.9
2016-06-06T08:42:47.142Z,20.8
2016-06-06T08:42:57.142Z,20.9
2016-06-06T08:43:07.145Z,21
2016-06-06T08:43:17.130Z,20.9
2016-06-06T08:43:27.130Z,20.9
2016-06-06T08:43:37.114Z,21
2016-06-06T08:43:48.020Z,21
2016-06-06T08:43:57.114Z,21
2016-06-06T08:44:07.116Z,21
2016-06-06T08:44:17.100Z,21
2016-06-06T08:44:27.257Z,20.9
2016-06-06T08:44:37.319Z,21
2016-06-06T08:44:47.225Z,21
2016-06-06T08:44:57.085Z,21
2016-06-06T08:45:07.088Z,21.1
2016-06-06T08:45:17.072Z,21.1
2016-06-06T08:45:27.072Z,21.1
2016-06-06T08:45:37.072Z,21.1
2016-06-06T08:45:47.056Z,21
2016-06-06T08:45:57.072Z,21
2016-06-06T08:46:07.058Z,20.9
2016-06-06T08:46:17.043Z,21
2016-06-06T08:46:27.043Z,20.9
2016-06-06T08:46:37.043Z,20.9
2016-06-06T08:46:47.027Z,21
2016-06-06T08:46:57.027Z,21.1
2016-06-06T08:47:07.030Z,21.1
2016-06-06T08:47:17.030Z,21.2
2016-06-06T08:47:27.015Z,21.2
2016-06-06T08:47:37.015Z,21.1
2016-06-06T08:47:47.015Z,21.1
2016-06-06T08:47:56.999Z,21.2
2016-06-06T08:48:07.002Z,21.1
2016-06-06T08:48:17.002Z,21.2
2016-06-06T08:48:26.986Z,21.1
2016-06-06T08:48:36.986Z,21.2
2016-06-06T08:48:46.986Z,21.1
2016-06-06T08:48:56.971Z,21.2
2016-06-06T08:49:06.974Z,21.1
2016-06-06T08:49:16.974Z,21.1
2016-06-06T08:49:26.974Z,21.2
2016-06-06T08:49:36.958Z,21.1
2016-06-06T08:49:46.958Z,21.1
2016-06-06T08:49:56.958Z,21.1
2016-06-06T08:50:06.944Z,21.3
2016-06-06T08:50:16.944Z,21.3
2016-06-06T08:50:26.944Z,21.3
2016-06-06T08:50:36.929Z,21.3
2016-06-06T08:50:46.929Z,21.3
2016-06-06T08:50:56.929Z,21.3
2016-06-06T08:51:06.916Z,21.3
2016-06-06T08:51:16.916Z,21.3
2016-06-06T08:51:26.916Z,21.3
2016-06-06T08:51:36.916Z,21.3
2016-06-06T08:51:46.901Z,21.4
2016-06-06T08:51:56.901Z,21.4
2016-06-06T08:52:06.904Z,21.5
2016-06-06T08:52:16.888Z,21.4
2016-06-06T08:52:26.888Z,21.4
2016-06-06T08:52:36.888Z,21.4
2016-06-06T08:52:46.888Z,21.3
2016-06-06T08:52:56.872Z,21.3
2016-06-06T08:53:06.874Z,21.3
2016-06-06T08:53:16.859Z,21.2
2016-06-06T08:53:26.859Z,21.3
2016-06-06T08:53:36.859Z,21.1
2016-06-06T08:53:46.859Z,21.2
2016-06-06T08:53:56.843Z,21.3
2016-06-06T08:54:06.846Z,21.1
2016-06-06T08:54:16.830Z,21.2
2016-06-06T08:54:26.830Z,21.2
2016-06-06T08:54:36.830Z,21.2
2016-06-06T08:54:46.830Z,21.3
2016-06-06T08:54:56.815Z,21.4
2016-06-06T08:55:06.818Z,21.3
2016-06-06T08:55:16.818Z,21.4
2016-06-06T08:55:26.818Z,21.4
2016-06-06T08:55:36.802Z,21.5
2016-06-06T08:55:46.802Z,21.4
2016-06-06T08:55:56.802Z,21.5
2016-06-06T08:56:06.789Z,21.6
2016-06-06T08:56:16.789Z,21.6
2016-06-06T08:56:26.789Z,21.7
2016-06-06T08:56:36.773Z,21.7
2016-06-06T08:56:46.773Z,21.7
2016-06-06T08:56:56.773Z,21.6
2016-06-06T08:57:06.760Z,21.6
2016-06-06T08:57:16.760Z,21.6
2016-06-06T08:57:26.760Z,21.5
2016-06-06T08:57:36.745Z,21.5
2016-06-06T08:57:46.745Z,21.5
2016-06-06T08:57:56.745Z,21.5
2016-06-06T08:58:06.747Z,21.5
2016-06-06T08:58:16.731Z,21.6
2016-06-06T08:58:26.731Z,21.6
2016-06-06T08:58:36.731Z,21.5
2016-06-06T08:58:46.715Z,21.6
2016-06-06T08:58:56.731Z,21.6
2016-06-06T08:59:06.719Z,21.6
2016-06-06T08:59:16.923Z,21.8
2016-06-06T08:59:26.923Z,21.7
2016-06-06T08:59:36.704Z,21.8
2016-06-06T08:59:46.704Z,21.8
2016-06-06T08:59:56.704Z,21.9
2016-06-06T09:00:06.893Z,21.9
2016-06-06T09:00:16.690Z,21.8
2016-06-06T09:00:26.675Z,21.7
2016-06-06T09:00:36.675Z,21.8
2016-06-06T09:00:46.659Z,21.8
2016-06-06T09:00:56.659Z,21.8
2016-06-06T09:01:06.662Z,21.9
2016-06-06T09:01:16.662Z,22
2016-06-06T09:01:26.646Z,21.7
2016-06-06T09:01:36.646Z,21.8
2016-06-06T09:01:46.646Z,21.8
2016-06-06T09:01:56.631Z,22
2016-06-06T09:02:06.634Z,22
2016-06-06T09:02:16.634Z,22.1
2016-06-06T09:02:26.618Z,22.1
2016-06-06T09:02:36.618Z,22.1
2016-06-06T09:02:46.618Z,22.2
2016-06-06T09:02:56.618Z,22.1
2016-06-06T09:03:06.604Z,22.2
2016-06-06T09:03:16.604Z,22.2
2016-06-06T09:03:26.604Z,22.2
2016-06-06T09:03:36.589Z,22.2
2016-06-06T09:03:46.589Z,22.4
2016-06-06T09:03:56.589Z,22.4
2016-06-06T09:04:06.576Z,22.4
2016-06-06T09:04:16.576Z,22.4
2016-06-06T09:04:26.576Z,22.4
2016-06-06T09:04:36.576Z,22.5
2016-06-06T09:04:46.561Z,22.4
2016-06-06T09:04:56.561Z,22.4
2016-06-06T09:05:06.564Z,22.5
2016-06-06T09:05:16.548Z,22.6
2016-06-06T09:05:26.548Z,22.6
2016-06-06T09:05:36.548Z,22.6
2016-06-06T09:05:46.532Z,22.7
2016-06-06T09:05:56.532Z,22.7
2016-06-06T09:06:06.534Z,22.8
2016-06-06T09:06:16.534Z,22.8
2016-06-06T09:06:26.519Z,22.9
2016-06-06T09:06:36.519Z,22.9
2016-06-06T09:06:46.519Z,22.9
2016-06-06T09:06:56.503Z,22.8
2016-06-06T09:07:06.506Z,22.9
2016-06-06T09:07:16.506Z,22.9
2016-06-06T09:07:26.490Z,23
2016-06-06T09:07:36.490Z,22.9
2016-06-06T09:07:46.490Z,23
2016-06-06T09:07:56.475Z,23
2016-06-06T09:08:06.492Z,23
2016-06-06T09:08:16.477Z,23.1
2016-06-06T09:08:26.461Z,23.1
2016-06-06T09:08:36.461Z,23
2016-06-06T09:08:46.461Z,23
2016-06-06T09:08:56.446Z,23.2
2016-06-06T09:09:06.450Z,23.2
2016-06-06T09:09:16.496Z,23.2
2016-06-06T09:09:26.434Z,23.2
2016-06-06T09:09:36.434Z,23.3
2016-06-06T09:09:46.434Z,23.3
2016-06-06T09:09:56.434Z,23.2
2016-06-06T09:10:06.420Z,23.2
2016-06-06T09:10:16.420Z,23.3
2016-06-06T09:10:26.420Z,23.3
2016-06-06T09:10:36.420Z,23.3
2016-06-06T09:10:46.405Z,23.4
2016-06-06T09:10:56.405Z,23.4
2016-06-06T09:11:06.392Z,23.4
2016-06-06T09:11:16.392Z,23.4
2016-06-06T09:11:26.392Z,23.3
2016-06-06T09:11:36.392Z,23.4
2016-06-06T09:11:46.376Z,23.4
2016-06-06T09:11:56.376Z,23.4
2016-06-06T09:12:06.379Z,23.4
2016-06-06T09:12:16.364Z,23.5
2016-06-06T09:12:26.364Z,23.5
2016-06-06T09:12:36.364Z,23.5
2016-06-06T09:12:46.364Z,23.7
2016-06-06T09:12:56.348Z,23.6
2016-06-06T09:13:06.350Z,23.6
2016-06-06T09:13:16.350Z,23.7
2016-06-06T09:13:26.335Z,23.7
2016-06-06T09:13:36.335Z,23.7
2016-06-06T09:13:46.335Z,23.7
2016-06-06T09:13:56.460Z,23.7
2016-06-06T09:14:06.431Z,23.5
2016-06-06T09:14:16.369Z,23.5
2016-06-06T09:14:26.322Z,23.5
2016-06-06T09:14:36.306Z,23.5
2016-06-06T09:14:46.306Z,23.6
2016-06-06T09:14:56.306Z,23.5
2016-06-06T09:15:06.293Z,23.8
2016-06-06T09:15:16.293Z,23.8
2016-06-06T09:15:26.293Z,23.7
2016-06-06T09:15:36.277Z,23.6
2016-06-06T09:15:46.277Z,23.6
2016-06-06T09:15:56.277Z,23.5
2016-06-06T09:16:06.280Z,23.4
2016-06-06T09:16:16.264Z,23.6
2016-06-06T09:16:26.264Z,23.5
2016-06-06T09:16:36.264Z,23.5
2016-06-06T09:16:46.249Z,23.6
2016-06-06T09:16:56.249Z,23.5
2016-06-06T09:17:06.252Z,23.5
2016-06-06T09:17:16.236Z,23.5
2016-06-06T09:17:26.236Z,23.4
2016-06-06T09:17:36.236Z,23.5
2016-06-06T09:17:46.221Z,23.5
2016-06-06T09:17:56.221Z,23.5
2016-06-06T09:18:06.224Z,23.5
2016-06-06T09:18:16.224Z,23.5
2016-06-06T09:18:26.208Z,23.5
2016-06-06T09:18:36.208Z,23.7
2016-06-06T09:18:46.208Z,23.7
2016-06-06T09:18:56.192Z,23.9
2016-06-06T09:19:06.194Z,23.9
2016-06-06T09:19:16.194Z,23.7
2016-06-06T09:19:26.194Z,23.9
2016-06-06T09:19:36.179Z,23.9
2016-06-06T09:19:46.179Z,24
2016-06-06T09:19:56.179Z,24.1
2016-06-06T09:20:06.166Z,24.3
2016-06-06T09:20:16.166Z,24.4
2016-06-06T09:20:26.166Z,24.7
2016-06-06T09:20:36.150Z,24.6
2016-06-06T09:20:46.150Z,24.7
2016-06-06T09:20:56.150Z,24.7
2016-06-06T09:21:06.153Z,24.6
2016-06-06T09:21:16.138Z,24.4
2016-06-06T09:21:26.138Z,24.5
2016-06-06T09:21:36.138Z,24.6
2016-06-06T09:21:46.122Z,24.5
2016-06-06T09:21:56.122Z,24.6
2016-06-06T09:22:06.124Z,24.6
2016-06-06T09:22:16.109Z,24.7
2016-06-06T09:22:26.109Z,24.8
2016-06-06T09:22:36.109Z,24.8
2016-06-06T09:22:46.093Z,25
2016-06-06T09:22:56.093Z,25.1
2016-06-06T09:23:06.096Z,25.1
2016-06-06T09:23:16.096Z,25.2
2016-06-06T09:23:26.080Z,25
2016-06-06T09:23:36.080Z,25.2
2016-06-06T09:23:46.080Z,25.5
2016-06-06T09:23:56.080Z,25.6
2016-06-06T09:24:06.068Z,25.7
2016-06-06T09:24:16.083Z,26.5
2016-06-06T09:24:26.068Z,27.3
2016-06-06T09:24:36.052Z,27.6
2016-06-06T09:24:46.052Z,27.9
2016-06-06T09:24:56.052Z,28.4
2016-06-06T09:25:06.038Z,28.4
2016-06-06T09:25:16.038Z,28.3
2016-06-06T09:25:26.038Z,28
2016-06-06T09:25:36.023Z,28.1
2016-06-06T09:25:46.023Z,27.9
2016-06-06T09:25:56.023Z,28.1
2016-06-06T09:26:06.026Z,27.9
2016-06-06T09:26:16.010Z,28.1
2016-06-06T09:26:26.010Z,28.2
2016-06-06T09:26:36.010Z,28.2
2016-06-06T09:26:46.010Z,28.2
2016-06-06T09:26:55.995Z,28.1
2016-06-06T09:27:05.998Z,28.4
2016-06-06T09:27:15.982Z,28.7
2016-06-06T09:27:25.998Z,28.9
2016-06-06T09:27:35.982Z,28.9
2016-06-06T09:27:45.982Z,29
2016-06-06T09:27:55.982Z,29
2016-06-06T09:28:05.969Z,29.2
2016-06-06T09:28:15.969Z,29.5
2016-06-06T09:28:25.954Z,30.1
2016-06-06T09:28:35.969Z,30.4
2016-06-06T09:28:45.954Z,29.8
2016-06-06T09:28:55.938Z,29.4
2016-06-06T09:29:05.940Z,29.1
2016-06-06T09:29:15.940Z,28.8
2016-06-06T09:29:25.940Z,28.5
2016-06-06T09:29:35.924Z,28.3
2016-06-06T09:29:45.924Z,28.3
2016-06-06T09:29:55.924Z,28.2
2016-06-06T09:30:05.912Z,28
2016-06-06T09:30:15.912Z,27.9
2016-06-06T09:30:25.912Z,27.8
2016-06-06T09:30:35.912Z,27.7
2016-06-06T09:30:45.912Z,27.8
2016-06-06T09:30:55.896Z,28.1
2016-06-06T09:31:05.898Z,28.4
2016-06-06T09:31:15.883Z,28.7
2016-06-06T09:31:25.883Z,28.9
2016-06-06T09:31:35.883Z,29.1
2016-06-06T09:31:45.883Z,29.6
2016-06-06T09:31:55.867Z,30
2016-06-06T09:32:05.870Z,30
2016-06-06T09:32:15.870Z,30
2016-06-06T09:32:25.870Z,30.1
2016-06-06T09:32:35.854Z,30.6
2016-06-06T09:32:45.854Z,30.8
2016-06-06T09:32:55.854Z,30.8
2016-06-06T09:33:05.842Z,30.3
2016-06-06T09:33:15.842Z,30.4
2016-06-06T09:33:25.826Z,30.3
2016-06-06T09:33:35.826Z,30.5
2016-06-06T09:33:45.826Z,30.8
2016-06-06T09:33:55.826Z,31.3
2016-06-06T09:34:05.829Z,31.5
2016-06-06T09:34:15.813Z,31.7
2016-06-06T09:34:25.813Z,32
2016-06-06T09:34:35.813Z,32
2016-06-06T09:34:45.798Z,32.3
2016-06-06T09:34:55.798Z,32.2
2016-06-06T09:35:05.801Z,32.5
2016-06-06T09:35:15.801Z,32.3
2016-06-06T09:35:25.785Z,32.6
2016-06-06T09:35:35.785Z,32.9
2016-06-06T09:35:45.785Z,32.8
2016-06-06T09:35:55.770Z,32.5
2016-06-06T09:36:05.772Z,32.4
2016-06-06T09:36:15.772Z,32.4
2016-06-06T09:36:25.756Z,32.3
2016-06-06T09:36:35.756Z,32.4
2016-06-06T09:36:45.772Z,32.4
2016-06-06T09:36:55.740Z,32.6
2016-06-06T09:37:05.743Z,32.2
2016-06-06T09:37:15.743Z,32.1
2016-06-06T09:37:25.743Z,32.1
2016-06-06T09:37:35.728Z,32.1
2016-06-06T09:37:45.728Z,32.6
2016-06-06T09:37:55.728Z,32.8
2016-06-06T09:38:05.730Z,32.4
2016-06-06T09:38:15.714Z,32.2
2016-06-06T09:38:25.714Z,32.6
2016-06-06T09:38:35.714Z,33
2016-06-06T09:38:45.714Z,32.8
2016-06-06T09:38:55.698Z,33.2
2016-06-06T09:39:05.701Z,33.6
2016-06-06T09:39:15.701Z,34.1
2016-06-06T09:39:25.686Z,34.3
2016-06-06T09:39:35.686Z,33.9
2016-06-06T09:39:45.686Z,33.8
2016-06-06T09:39:55.686Z,34.1
2016-06-06T09:40:05.673Z,34.1
2016-06-06T09:40:15.689Z,34.6
2016-06-06T09:40:25.673Z,34.6
2016-06-06T09:40:35.658Z,34.8
2016-06-06T09:40:45.658Z,34.9
2016-06-06T09:40:55.658Z,35
2016-06-06T09:41:05.661Z,35.2
2016-06-06T09:41:15.661Z,35.6
2016-06-06T09:41:25.645Z,35.8
2016-06-06T09:41:35.645Z,36
2016-06-06T09:41:45.629Z,36
2016-06-06T09:41:55.629Z,36.1
2016-06-06T09:42:05.631Z,35.9
2016-06-06T09:42:15.631Z,35.6
2016-06-06T09:42:25.631Z,35.7
2016-06-06T09:42:35.616Z,35.8
2016-06-06T09:42:45.616Z,35.7
2016-06-06T09:42:55.616Z,36
2016-06-06T09:43:05.603Z,35.9
2016-06-06T09:43:15.603Z,36.3
2016-06-06T09:43:25.603Z,36.3
2016-06-06T09:43:35.587Z,36.4
2016-06-06T09:43:46.025Z,36.2
2016-06-06T09:43:55.603Z,36.1
2016-06-06T09:44:05.589Z,36.4
2016-06-06T09:44:15.589Z,36.4
2016-06-06T09:44:25.605Z,36.5
2016-06-06T09:44:35.574Z,36.5
2016-06-06T09:44:45.574Z,36.4
2016-06-06T09:44:55.558Z,36.4
2016-06-06T09:45:05.562Z,36.7
2016-06-06T09:45:15.562Z,36.8
2016-06-06T09:45:25.562Z,36.8
2016-06-06T09:45:35.547Z,37
2016-06-06T09:45:45.547Z,37.1
2016-06-06T09:45:55.547Z,37.3
2016-06-06T09:46:05.549Z,37.2
2016-06-06T09:46:15.533Z,36.9
2016-06-06T09:46:25.533Z,36.7
2016-06-06T09:46:35.533Z,36.6
2016-06-06T09:46:45.517Z,36.6
2016-06-06T09:46:55.517Z,36.1
2016-06-06T09:47:05.520Z,36.1
2016-06-06T09:47:15.520Z,36
2016-06-06T09:47:25.505Z,35.7
2016-06-06T09:47:35.505Z,35.5
2016-06-06T09:47:45.505Z,35.4
2016-06-06T09:47:55.505Z,35.5
2016-06-06T09:48:05.491Z,35.8
2016-06-06T09:48:15.491Z,35.7
2016-06-06T09:48:25.491Z,35.8
2016-06-06T09:48:35.491Z,35.6
2016-06-06T09:48:45.475Z,35.9
2016-06-06T09:48:55.475Z,35.8
2016-06-06T09:49:05.478Z,35.9
2016-06-06T09:49:15.478Z,35.5
2016-06-06T09:49:25.463Z,35.7
2016-06-06T09:49:35.478Z,35.7
2016-06-06T09:49:45.463Z,36.1
2016-06-06T09:49:55.463Z,36.2
2016-06-06T09:50:05.449Z,36.4
2016-06-06T09:50:15.449Z,36.6
2016-06-06T09:50:25.449Z,36.8
2016-06-06T09:50:35.449Z,36.9
2016-06-06T09:50:45.434Z,37.4
2016-06-06T09:50:55.434Z,37.6
2016-06-06T09:51:05.437Z,37.6
2016-06-06T09:51:15.437Z,37.8
2016-06-06T09:51:25.437Z,37.8
2016-06-06T09:51:35.421Z,37.6
2016-06-06T09:51:45.421Z,37.8
2016-06-06T09:51:55.405Z,37.7
2016-06-06T09:52:05.408Z,37.8
2016-06-06T09:52:15.408Z,38.1
2016-06-06T09:52:25.408Z,37.8
2016-06-06T09:52:35.393Z,38.1
2016-06-06T09:52:45.393Z,38.4
2016-06-06T09:52:55.393Z,38.4
2016-06-06T09:53:05.396Z,38.4
2016-06-06T09:53:15.396Z,38.3
2016-06-06T09:53:25.380Z,38.5
2016-06-06T09:53:35.380Z,38.5
2016-06-06T09:53:45.380Z,38.3
2016-06-06T09:53:55.364Z,38.4
2016-06-06T09:54:05.367Z,38.5
2016-06-06T09:54:15.367Z,38.7
2016-06-06T09:54:25.367Z,38.7
2016-06-06T09:54:35.352Z,38.9
2016-06-06T09:54:45.352Z,39
2016-06-06T09:54:55.352Z,38.7
2016-06-06T09:55:05.352Z,38.8
2016-06-06T09:55:15.354Z,38.7
2016-06-06T09:55:25.338Z,38.3
2016-06-06T09:55:35.338Z,38.2
2016-06-06T09:55:45.338Z,38.2
2016-06-06T09:55:55.338Z,38.5
2016-06-06T09:56:05.323Z,38.7
2016-06-06T09:56:15.326Z,38.5
2016-06-06T09:56:25.326Z,38.8
2016-06-06T09:56:35.326Z,38.9
2016-06-06T09:56:45.310Z,38.7
2016-06-06T09:56:55.310Z,38.7
2016-06-06T09:57:05.310Z,38.8
2016-06-06T09:57:15.313Z,38.6
2016-06-06T09:57:25.297Z,38.5
2016-06-06T09:57:35.297Z,38.5
2016-06-06T09:57:45.297Z,38.5
2016-06-06T09:57:55.297Z,38.5
2016-06-06T09:58:05.282Z,38.5
2016-06-06T09:58:15.284Z,38.4
2016-06-06T09:58:25.284Z,38.8
2016-06-06T09:58:35.299Z,38.9
2016-06-06T09:58:45.284Z,39
2016-06-06T09:58:55.674Z,38.9
2016-06-06T09:59:05.268Z,39
2016-06-06T09:59:15.271Z,38.7
2016-06-06T09:59:25.255Z,38.4
2016-06-06T09:59:35.255Z,38.1
2016-06-06T09:59:46.005Z,38.3
2016-06-06T09:59:55.255Z,38.6
2016-06-06T10:00:05.240Z,38.7
2016-06-06T10:00:15.243Z,38.2
2016-06-06T10:00:25.243Z,38.2
2016-06-06T10:00:35.243Z,38.2
2016-06-06T10:00:45.227Z,37.9
2016-06-06T10:00:55.227Z,38.3
2016-06-06T10:01:05.227Z,38.2
2016-06-06T10:01:15.230Z,38.1
2016-06-06T10:01:25.215Z,37.9
2016-06-06T10:01:35.215Z,38
2016-06-06T10:01:45.215Z,37.6
2016-06-06T10:01:55.215Z,37.7
2016-06-06T10:02:05.215Z,37.9
2016-06-06T10:02:15.201Z,37.8
2016-06-06T10:02:25.201Z,38.2
2016-06-06T10:02:35.201Z,37.8
2016-06-06T10:02:45.217Z,37.9
2016-06-06T10:02:55.185Z,37.8
2016-06-06T10:03:05.185Z,37.8
2016-06-06T10:03:15.188Z,37.9
2016-06-06T10:03:25.188Z,37.8
2016-06-06T10:03:35.173Z,37.7
2016-06-06T10:03:45.173Z,37.5
2016-06-06T10:03:55.173Z,37.3
2016-06-06T10:04:05.173Z,37.5
2016-06-06T10:04:15.175Z,37.7
2016-06-06T10:04:25.159Z,38
2016-06-06T10:04:35.159Z,38.2
2016-06-06T10:04:45.159Z,38.4
2016-06-06T10:04:55.159Z,38.5
2016-06-06T10:05:05.143Z,38.2
2016-06-06T10:05:15.146Z,38.4
2016-06-06T10:05:25.146Z,38.4
2016-06-06T10:05:35.146Z,38.5
2016-06-06T10:05:45.131Z,38.7
2016-06-06T10:05:55.131Z,38.8
2016-06-06T10:06:05.131Z,39
2016-06-06T10:06:15.134Z,39.1
2016-06-06T10:06:25.118Z,39.2
2016-06-06T10:06:35.118Z,39.4
2016-06-06T10:06:45.118Z,39.6
2016-06-06T10:06:55.118Z,39.5
2016-06-06T10:07:05.103Z,39.5
2016-06-06T10:07:15.121Z,39.3
2016-06-06T10:07:25.106Z,39.5
2016-06-06T10:07:35.106Z,39.5
2016-06-06T10:07:45.106Z,39.3
2016-06-06T10:07:55.106Z,39.3
2016-06-06T10:08:05.090Z,39.3
2016-06-06T10:08:15.092Z,39.5
2016-06-06T10:08:25.092Z,39.3
2016-06-06T10:08:35.076Z,39.2
2016-06-06T10:08:45.076Z,39.1
2016-06-06T10:08:55.076Z,39.1
2016-06-06T10:09:05.076Z,38.8
2016-06-06T10:09:15.079Z,38.8
2016-06-06T10:09:25.064Z,38.8
2016-06-06T10:09:35.064Z,38.8
2016-06-06T10:09:45.064Z,38.9
2016-06-06T10:09:55.064Z,38.8
2016-06-06T10:10:05.048Z,38.9
2016-06-06T10:10:15.050Z,39
2016-06-06T10:10:25.050Z,39.2
2016-06-06T10:10:35.050Z,39.2
2016-06-06T10:10:45.050Z,39.3
2016-06-06T10:10:55.034Z,39
2016-06-06T10:11:05.034Z,39.3
2016-06-06T10:11:15.038Z,38.9
2016-06-06T10:11:25.038Z,38.7
2016-06-06T10:11:35.023Z,38.6
2016-06-06T10:11:45.023Z,38.7
2016-06-06T10:11:55.023Z,38.6
2016-06-06T10:12:05.023Z,38.5
2016-06-06T10:12:15.009Z,38.5
2016-06-06T10:12:25.009Z,38.6
2016-06-06T10:12:35.009Z,38.8
2016-06-06T10:12:45.009Z,38.8
2016-06-06T10:12:55.009Z,38.7
2016-06-06T10:13:05.009Z,38.8
2016-06-06T10:13:14.996Z,39
2016-06-06T10:13:24.996Z,38.7
2016-06-06T10:13:34.996Z,38.5
2016-06-06T10:13:45.761Z,38.7
2016-06-06T10:13:54.996Z,38.6
2016-06-06T10:14:04.980Z,38.6
2016-06-06T10:14:14.984Z,38.9
2016-06-06T10:14:25.468Z,38.9
2016-06-06T10:14:35.015Z,38.9
2016-06-06T10:14:45.437Z,38.6
2016-06-06T10:14:55.343Z,38.5
2016-06-06T10:15:04.968Z,38.7
2016-06-06T10:15:14.955Z,38
2016-06-06T10:15:24.955Z,38
2016-06-06T10:15:34.955Z,38.4
2016-06-06T10:15:44.955Z,38.6
2016-06-06T10:15:54.939Z,38.5
2016-06-06T10:16:04.939Z,38.5
2016-06-06T10:16:14.942Z,38.2
2016-06-06T10:16:24.942Z,38.6
2016-06-06T10:16:34.942Z,38.7
2016-06-06T10:16:44.926Z,38.8
2016-06-06T10:16:54.926Z,38.8
2016-06-06T10:17:04.926Z,39
2016-06-06T10:17:14.928Z,39.1
2016-06-06T10:17:24.913Z,38.9
2016-06-06T10:17:34.913Z,38.5
2016-06-06T10:17:44.913Z,38.4
2016-06-06T10:17:54.913Z,38.2
2016-06-06T10:18:04.897Z,38.4
2016-06-06T10:18:14.900Z,38.6
2016-06-06T10:18:24.900Z,38.8
2016-06-06T10:18:34.900Z,38.4
2016-06-06T10:18:44.900Z,38.5
2016-06-06T10:18:54.900Z,38.8
2016-06-06T10:19:04.885Z,38.9
2016-06-06T10:19:14.888Z,38.5
2016-06-06T10:19:24.888Z,38.3
2016-06-06T10:19:34.888Z,38
2016-06-06T10:19:44.888Z,38.1
2016-06-06T10:19:54.872Z,38.1
2016-06-06T10:20:04.872Z,38.4
2016-06-06T10:20:14.875Z,38.6
2016-06-06T10:20:24.859Z,38.7
2016-06-06T10:20:34.859Z,38.8
2016-06-06T10:20:44.859Z,38.7
2016-06-06T10:20:54.859Z,38.9
2016-06-06T10:21:04.844Z,38.9
2016-06-06T10:21:14.846Z,38.8
2016-06-06T10:21:24.846Z,39
2016-06-06T10:21:34.846Z,39.1
2016-06-06T10:21:44.846Z,39.2
2016-06-06T10:21:54.830Z,39.4
2016-06-06T10:22:04.830Z,39.3
2016-06-06T10:22:14.833Z,39.4
2016-06-06T10:22:24.833Z,39.4
2016-06-06T10:22:34.833Z,39.4
2016-06-06T10:22:44.817Z,39
2016-06-06T10:22:54.817Z,38.9
2016-06-06T10:23:04.817Z,39
2016-06-06T10:23:14.820Z,39.3
2016-06-06T10:23:24.820Z,39.4
2016-06-06T10:23:34.805Z,39.3
2016-06-06T10:23:44.805Z,39
2016-06-06T10:23:54.805Z,38.5
2016-06-06T10:24:04.805Z,38.5
2016-06-06T10:24:14.807Z,38.8
2016-06-06T10:24:24.791Z,38.6
2016-06-06T10:24:34.791Z,38.7
2016-06-06T10:24:44.791Z,38.4
2016-06-06T10:24:54.776Z,38.2
2016-06-06T10:25:04.776Z,38.7
2016-06-06T10:25:14.779Z,38.8
2016-06-06T10:25:24.779Z,39
2016-06-06T10:25:34.779Z,38.8
2016-06-06T10:25:44.763Z,38.5
2016-06-06T10:25:54.763Z,38.2
2016-06-06T10:26:04.763Z,38
2016-06-06T10:26:14.766Z,38.1
2016-06-06T10:26:24.750Z,38.2
2016-06-06T10:26:34.750Z,38
2016-06-06T10:26:44.750Z,38.1
2016-06-06T10:26:54.750Z,38
2016-06-06T10:27:04.750Z,38.3
2016-06-06T10:27:14.737Z,38.2
2016-06-06T10:27:24.737Z,38.3
2016-06-06T10:27:34.737Z,38.7
2016-06-06T10:27:44.737Z,38.9
2016-06-06T10:27:54.737Z,38.5
2016-06-06T10:28:04.721Z,38.5
2016-06-06T10:28:14.723Z,38.5
2016-06-06T10:28:24.723Z,38.4
2016-06-06T10:28:34.723Z,38.5
2016-06-06T10:28:44.723Z,38
2016-06-06T10:28:54.786Z,38
2016-06-06T10:29:04.707Z,38
2016-06-06T10:29:14.743Z,38
2016-06-06T10:29:24.696Z,38
2016-06-06T10:29:34.711Z,37.9
2016-06-06T10:29:44.696Z,38
2016-06-06T10:29:54.696Z,38.4
2016-06-06T10:30:04.790Z,38.6
2016-06-06T10:30:14.698Z,38.5
2016-06-06T10:30:24.682Z,38.7
2016-06-06T10:30:34.682Z,38.8
2016-06-06T10:30:44.682Z,38.7
2016-06-06T10:30:54.682Z,38.7
2016-06-06T10:31:04.667Z,38.8
2016-06-06T10:31:14.670Z,38.7
2016-06-06T10:31:24.670Z,38.7
2016-06-06T10:31:34.685Z,38.8
2016-06-06T10:31:44.670Z,38.7
2016-06-06T10:31:54.654Z,38.7
2016-06-06T10:32:04.654Z,38.6
2016-06-06T10:32:14.656Z,38.5
2016-06-06T10:32:24.656Z,38.5
2016-06-06T10:32:34.656Z,38.1
2016-06-06T10:32:44.640Z,38.1
2016-06-06T10:32:54.640Z,38.2
2016-06-06T10:33:04.640Z,38.4
2016-06-06T10:33:14.643Z,38.4
2016-06-06T10:33:24.628Z,38.5
2016-06-06T10:33:34.628Z,38.2
2016-06-06T10:33:44.628Z,38.3
2016-06-06T10:33:54.628Z,38.5
2016-06-06T10:34:04.628Z,38.7
2016-06-06T10:34:14.615Z,38.8
2016-06-06T10:34:24.615Z,38.8
2016-06-06T10:34:34.615Z,38.9
2016-06-06T10:34:44.615Z,39
2016-06-06T10:34:54.599Z,38.9
2016-06-06T10:35:04.599Z,39.1
2016-06-06T10:35:14.602Z,39
2016-06-06T10:35:24.602Z,39.2
2016-06-06T10:35:34.602Z,39.3
2016-06-06T10:35:44.587Z,39.3
2016-06-06T10:35:54.587Z,39.3
2016-06-06T10:36:04.587Z,38.9
2016-06-06T10:36:14.589Z,38.5
2016-06-06T10:36:24.589Z,38.4
2016-06-06T10:36:34.573Z,38.4
2016-06-06T10:36:44.589Z,38.5
2016-06-06T10:36:54.573Z,38.6
2016-06-06T10:37:04.573Z,38.4
2016-06-06T10:37:14.561Z,38.6
2016-06-06T10:37:24.561Z,38.8
2016-06-06T10:37:34.561Z,39
2016-06-06T10:37:44.561Z,39
2016-06-06T10:37:54.561Z,39.1
2016-06-06T10:38:04.545Z,38.9
2016-06-06T10:38:14.547Z,38.9
2016-06-06T10:38:24.563Z,39.1
2016-06-06T10:38:34.547Z,38.9
2016-06-06T10:38:44.531Z,38.3
2016-06-06T10:38:54.531Z,38.6
2016-06-06T10:39:04.531Z,38.8
2016-06-06T10:39:14.535Z,38.8
2016-06-06T10:39:24.535Z,39
2016-06-06T10:39:34.520Z,39.1
2016-06-06T10:39:44.520Z,39.2
2016-06-06T10:39:54.520Z,39
2016-06-06T10:40:04.520Z,39.2
2016-06-06T10:40:14.522Z,38.9
2016-06-06T10:40:24.506Z,39.2
2016-06-06T10:40:34.506Z,39.1
2016-06-06T10:40:44.506Z,39.1
2016-06-06T10:40:54.506Z,39.2
2016-06-06T10:41:04.490Z,39.5
2016-06-06T10:41:14.493Z,39.4
2016-06-06T10:41:24.493Z,39.3
2016-06-06T10:41:34.493Z,39.5
2016-06-06T10:41:44.493Z,39.5
2016-06-06T10:41:54.478Z,39.7
2016-06-06T10:42:04.478Z,39.7
2016-06-06T10:42:14.480Z,39.8
2016-06-06T10:42:24.480Z,39.9
2016-06-06T10:42:34.480Z,39.4
2016-06-06T10:42:44.464Z,39.6
2016-06-06T10:42:54.464Z,39.9
2016-06-06T10:43:04.464Z,39.9
2016-06-06T10:43:14.467Z,40.1
2016-06-06T10:43:24.452Z,39.9
2016-06-06T10:43:34.452Z,40.1
2016-06-06T10:43:44.452Z,40.1
2016-06-06T10:43:54.452Z,40.1
2016-06-06T10:44:05.186Z,40.2
2016-06-06T10:44:14.439Z,39.7
2016-06-06T10:44:24.439Z,40.1
2016-06-06T10:44:34.439Z,40.1
2016-06-06T10:44:44.439Z,39.8
2016-06-06T10:44:54.423Z,39.9
2016-06-06T10:45:04.455Z,40
2016-06-06T10:45:14.426Z,40.1
2016-06-06T10:45:24.426Z,40.2
2016-06-06T10:45:34.426Z,40.3
2016-06-06T10:45:44.411Z,40.4
2016-06-06T10:45:54.411Z,40.4
2016-06-06T10:46:04.411Z,40.5
2016-06-06T10:46:14.413Z,40.7
2016-06-06T10:46:24.413Z,40.7
2016-06-06T10:46:34.397Z,40.5
2016-06-06T10:46:44.397Z,40.5
2016-06-06T10:46:54.413Z,40.7
2016-06-06T10:47:04.397Z,40.9
2016-06-06T10:47:14.400Z,41.1
2016-06-06T10:47:24.384Z,40.8
2016-06-06T10:47:34.384Z,40.8
2016-06-06T10:47:44.384Z,40.9
2016-06-06T10:47:54.384Z,40.6
2016-06-06T10:48:04.369Z,40.7
2016-06-06T10:48:14.372Z,40.4
2016-06-06T10:48:24.372Z,40.3
2016-06-06T10:48:34.372Z,40.3
2016-06-06T10:48:44.372Z,40.2
2016-06-06T10:48:54.356Z,40.3
2016-06-06T10:49:04.356Z,40.2
2016-06-06T10:49:14.358Z,39.9
2016-06-06T10:49:24.358Z,40.2
2016-06-06T10:49:36.499Z,40.2
2016-06-06T10:49:46.499Z,40.2
2016-06-06T10:49:56.499Z,39.9
2016-06-06T10:50:06.499Z,39.9
2016-06-06T10:50:16.502Z,40
2016-06-06T10:50:26.486Z,40.1
2016-06-06T10:50:36.486Z,39.6
2016-06-06T10:50:46.486Z,39.9
2016-06-06T10:50:56.486Z,39.9
2016-06-06T10:51:06.486Z,40.2
2016-06-06T10:51:16.474Z,40.3
2016-06-06T10:51:26.474Z,40.2
2016-06-06T10:51:36.474Z,40.3
2016-06-06T10:51:46.474Z,40.4
2016-06-06T10:51:56.474Z,40.3
2016-06-06T10:52:06.458Z,40.3
2016-06-06T10:52:16.461Z,40.3
2016-06-06T10:52:26.461Z,40.2
2016-06-06T10:52:36.445Z,40.4
2016-06-06T10:52:46.445Z,40.4
2016-06-06T10:52:56.445Z,40.5
2016-06-06T10:53:06.445Z,40.4
2016-06-06T10:53:16.447Z,40.2
2016-06-06T10:53:26.447Z,40.4
2016-06-06T10:53:36.432Z,40.5
2016-06-06T10:53:46.432Z,40.4
2016-06-06T10:53:56.432Z,40.2